createdAt,value
2023-05-13T00:01:49.821Z,3.58
2023-05-13T00:04:17.909Z,3.30
2023-05-13T00:06:45.496Z,3.78
2023-05-13T00:09:14.320Z,3.55
2023-05-13T00:11:41.858Z,3.70
2023-05-13T00:14:10.873Z,3.55
2023-05-13T00:16:38.445Z,3.75
2023-05-13T00:19:06.368Z,3.25
2023-05-13T00:21:33.967Z,3.78
2023-05-13T00:24:01.713Z,3.75
2023-05-13T00:26:30.797Z,3.75
2023-05-13T00:28:58.467Z,4.03
2023-05-13T00:31:26.332Z,3.83
2023-05-13T00:33:53.840Z,4.22
2023-05-13T00:36:21.419Z,3.70
2023-05-13T00:38:51.859Z,4.28
2023-05-13T00:41:19.664Z,3.70
2023-05-13T00:43:48.541Z,3.80
2023-05-13T00:46:16.317Z,3.63
2023-05-13T00:48:44.310Z,3.78
2023-05-13T00:51:11.797Z,3.78
2023-05-13T00:53:40.427Z,3.60
2023-05-13T00:56:08.257Z,4.05
2023-05-13T00:58:36.101Z,3.70
2023-05-13T01:01:13.372Z,3.08
2023-05-13T01:03:47.257Z,4.13
2023-05-13T01:06:17.422Z,3.35
2023-05-13T01:08:48.777Z,3.45
2023-05-13T01:11:20.361Z,3.10
2023-05-13T01:13:49.456Z,3.22
2023-05-13T01:16:20.857Z,3.67
2023-05-13T01:18:51.941Z,3.65
2023-05-13T01:21:31.964Z,3.70
2023-05-13T01:23:59.540Z,3.78
2023-05-13T01:26:27.204Z,3.95
2023-05-13T01:28:54.866Z,4.13
2023-05-13T01:31:23.730Z,3.90
2023-05-13T01:33:51.365Z,3.25
2023-05-13T01:36:19.058Z,4.20
2023-05-13T01:38:48.466Z,3.92
2023-05-13T01:41:16.018Z,3.58
2023-05-13T01:43:43.766Z,3.70
2023-05-13T01:46:14.302Z,3.63
2023-05-13T01:48:41.960Z,4.10
2023-05-13T01:51:10.160Z,3.67
2023-05-13T01:53:37.647Z,3.95
2023-05-13T01:56:09.850Z,3.80
2023-05-13T01:58:37.359Z,3.85
2023-05-13T02:01:04.876Z,4.13
2023-05-13T02:03:32.443Z,3.92
2023-05-13T02:06:00.014Z,3.90
2023-05-13T02:08:27.803Z,3.72
2023-05-13T02:10:56.303Z,4.05
2023-05-13T02:13:25.436Z,4.60
2023-05-13T02:15:53.328Z,4.15
2023-05-13T02:18:21.165Z,4.40
2023-05-13T02:20:49.078Z,4.20
2023-05-13T02:23:17.139Z,3.83
2023-05-13T02:25:44.666Z,3.92
2023-05-13T02:28:12.183Z,4.45
2023-05-13T02:30:41.778Z,3.97
2023-05-13T02:33:09.702Z,3.88
2023-05-13T02:35:37.293Z,4.30
2023-05-13T02:38:04.844Z,4.65
2023-05-13T02:40:32.336Z,4.47
2023-05-13T02:42:59.852Z,4.78
2023-05-13T02:45:27.362Z,4.63
2023-05-13T02:47:56.168Z,4.95
2023-05-13T02:50:24.030Z,4.40
2023-05-13T02:52:51.844Z,4.32
2023-05-13T02:55:19.696Z,4.40
2023-05-13T02:57:47.210Z,4.60
2023-05-13T03:00:15.983Z,4.32
2023-05-13T03:02:43.593Z,4.25
2023-05-13T03:05:12.496Z,4.72
2023-05-13T03:07:40.020Z,5.05
2023-05-13T03:10:08.450Z,4.90
2023-05-13T03:12:36.132Z,4.88
2023-05-13T03:15:04.059Z,5.18
2023-05-13T03:17:32.138Z,4.90
2023-05-13T03:19:59.792Z,4.60
2023-05-13T03:22:28.679Z,4.97
2023-05-13T03:24:57.203Z,5.43
2023-05-13T03:27:24.684Z,4.80
2023-05-13T03:29:52.258Z,5.38
2023-05-13T03:32:19.863Z,5.30
2023-05-13T03:34:47.506Z,5.07
2023-05-13T03:37:15.016Z,5.85
2023-05-13T03:39:43.810Z,5.30
2023-05-13T03:42:11.316Z,4.88
2023-05-13T03:44:39.068Z,5.05
2023-05-13T03:47:07.302Z,5.30
2023-05-13T03:49:34.837Z,5.40
2023-05-13T03:52:02.324Z,5.30
2023-05-13T03:54:29.843Z,5.13
2023-05-13T03:56:58.668Z,5.63
2023-05-13T03:59:26.128Z,5.05
2023-05-13T04:01:53.662Z,5.35
2023-05-13T04:04:21.160Z,5.15
2023-05-13T04:06:48.650Z,5.15
2023-05-13T04:09:16.136Z,5.53
2023-05-13T04:11:43.609Z,4.88
2023-05-13T04:14:12.425Z,5.43
2023-05-13T04:16:39.921Z,5.82
2023-05-13T04:19:07.510Z,5.25
2023-05-13T04:21:35.066Z,5.68
2023-05-13T04:24:02.569Z,5.45
2023-05-13T04:26:30.043Z,5.50
2023-05-13T04:28:57.530Z,5.50
2023-05-13T04:31:26.421Z,5.53
2023-05-13T04:33:53.936Z,5.80
2023-05-13T04:36:21.422Z,5.28
2023-05-13T04:38:49.025Z,5.53
2023-05-13T04:41:16.489Z,5.53
2023-05-13T04:43:44.034Z,5.03
2023-05-13T04:46:11.567Z,5.43
2023-05-13T04:48:40.496Z,5.35
2023-05-13T04:51:08.485Z,5.05
2023-05-13T04:53:38.310Z,5.40
2023-05-13T04:56:06.482Z,4.85
2023-05-13T04:58:34.338Z,5.65
2023-05-13T05:01:02.038Z,4.45
2023-05-13T05:03:29.611Z,4.60
2023-05-13T05:05:58.444Z,5.07
2023-05-13T05:08:26.092Z,4.97
2023-05-13T05:10:53.638Z,4.93
2023-05-13T05:13:21.177Z,5.20
2023-05-13T05:15:48.651Z,4.85
2023-05-13T05:18:16.175Z,4.88
2023-05-13T05:20:43.820Z,5.20
2023-05-13T05:23:12.623Z,4.85
2023-05-13T05:25:40.116Z,4.53
2023-05-13T05:28:09.340Z,4.70
2023-05-13T05:30:40.262Z,4.80
2023-05-13T05:33:08.466Z,5.60
2023-05-13T05:35:37.266Z,5.07
2023-05-13T05:38:05.322Z,4.50
2023-05-13T05:40:34.255Z,4.90
2023-05-13T05:43:01.791Z,5.20
2023-05-13T05:45:29.542Z,5.90
2023-05-13T05:47:57.595Z,5.47
2023-05-13T05:50:25.226Z,4.93
2023-05-13T05:52:52.707Z,5.03
2023-05-13T05:55:20.283Z,4.93
2023-05-13T05:57:49.095Z,4.72
2023-05-13T06:00:17.335Z,5.00
2023-05-13T06:02:44.860Z,6.90
2023-05-13T06:05:12.650Z,7.78
2023-05-13T06:07:40.106Z,9.88
2023-05-13T06:10:08.388Z,13.25
2023-05-13T06:12:35.905Z,16.58
2023-05-13T06:15:06.472Z,15.45
2023-05-13T06:17:34.042Z,8.95
2023-05-13T06:20:01.540Z,7.72
2023-05-13T06:22:29.019Z,5.30
2023-05-13T06:24:56.569Z,9.25
2023-05-13T06:27:24.135Z,17.50
2023-05-13T06:29:51.637Z,5.35
2023-05-13T06:32:20.597Z,5.10
2023-05-13T06:34:48.436Z,9.93
2023-05-13T06:37:16.032Z,6.70
2023-05-13T06:39:43.537Z,4.97
2023-05-13T06:42:12.362Z,5.32
2023-05-13T06:44:41.168Z,5.47
2023-05-13T06:47:10.298Z,4.70
2023-05-13T06:49:39.326Z,4.78
2023-05-13T06:52:08.742Z,5.45
2023-05-13T06:54:36.338Z,4.75
2023-05-13T06:57:05.677Z,5.10
2023-05-13T06:59:33.205Z,6.20
2023-05-13T07:02:00.799Z,5.03
2023-05-13T07:04:29.348Z,4.97
2023-05-13T07:06:58.525Z,4.82
2023-05-13T07:09:26.126Z,5.07
2023-05-13T07:11:53.673Z,4.97
2023-05-13T07:14:21.414Z,5.70
2023-05-13T07:16:48.981Z,5.65
2023-05-13T07:19:16.639Z,5.25
2023-05-13T07:21:44.248Z,4.50
2023-05-13T07:24:13.375Z,4.68
2023-05-13T07:26:40.951Z,5.93
2023-05-13T07:29:08.430Z,5.72
2023-05-13T07:31:35.889Z,4.72
2023-05-13T07:34:03.425Z,5.05
2023-05-13T07:36:30.902Z,5.30
2023-05-13T07:38:58.669Z,5.10
2023-05-13T07:41:28.552Z,4.60
2023-05-13T07:43:56.027Z,4.97
2023-05-13T07:46:23.521Z,4.82
2023-05-13T07:48:51.037Z,4.75
2023-05-13T07:51:18.514Z,5.35
2023-05-13T07:53:47.025Z,5.10
2023-05-13T07:56:14.581Z,5.00
2023-05-13T07:58:43.390Z,5.78
2023-05-13T08:01:10.881Z,4.93
2023-05-13T08:03:38.475Z,4.70
2023-05-13T08:06:06.384Z,5.20
2023-05-13T08:08:34.055Z,5.15
2023-05-13T08:11:01.566Z,5.15
2023-05-13T08:13:29.051Z,4.80
2023-05-13T08:16:01.405Z,4.47
2023-05-13T08:20:56.480Z,5.18
2023-05-13T08:23:40.366Z,4.60
2023-05-13T08:26:11.484Z,5.05
2023-05-13T08:28:39.011Z,7.60
2023-05-13T08:31:08.121Z,4.88
2023-05-13T08:33:35.769Z,5.32
2023-05-13T08:36:03.312Z,4.75
2023-05-13T08:38:30.824Z,4.28
2023-05-13T08:40:58.515Z,4.68
2023-05-13T08:43:28.721Z,4.50
2023-05-13T08:45:57.626Z,3.88
2023-05-13T08:48:26.786Z,4.55
2023-05-13T08:50:54.306Z,3.92
2023-05-13T08:53:22.530Z,4.05
2023-05-13T08:55:51.189Z,4.30
2023-05-13T08:58:18.688Z,4.03
2023-05-13T09:00:46.307Z,4.38
2023-05-13T09:03:14.121Z,3.85
2023-05-13T09:05:43.206Z,3.75
2023-05-13T09:08:10.755Z,3.20
2023-05-13T09:10:38.456Z,3.55
2023-05-13T09:13:07.308Z,3.38
2023-05-13T09:15:35.228Z,3.95
2023-05-13T09:18:05.148Z,4.10
2023-05-13T09:20:33.375Z,3.50
2023-05-13T09:23:03.957Z,4.00
2023-05-13T09:25:32.087Z,3.90
2023-05-13T09:28:01.235Z,4.00
2023-05-13T09:30:29.947Z,3.80
2023-05-13T09:33:09.029Z,3.65
2023-05-13T09:35:37.755Z,3.38
2023-05-13T09:38:15.550Z,3.17
2023-05-13T09:40:43.355Z,3.70
2023-05-13T09:43:11.912Z,3.22
2023-05-13T09:45:39.614Z,3.33
2023-05-13T09:48:07.466Z,2.90
2023-05-13T09:50:35.303Z,3.47
2023-05-13T09:53:11.006Z,3.13
2023-05-13T09:55:39.820Z,3.10
2023-05-13T09:58:12.888Z,2.70
2023-05-13T10:00:40.672Z,2.50
2023-05-13T10:03:08.634Z,2.05
2023-05-13T10:05:36.248Z,2.00
2023-05-13T10:08:04.538Z,1.70
2023-05-13T10:10:33.073Z,1.80
2023-05-13T10:13:05.635Z,2.00
2023-05-13T10:15:33.537Z,2.30
2023-05-13T10:18:02.009Z,1.90
2023-05-13T10:20:29.676Z,1.83
2023-05-13T10:22:58.208Z,1.83
2023-05-13T10:25:26.687Z,1.80
2023-05-13T10:27:54.264Z,2.03
2023-05-13T10:30:26.369Z,5.05
2023-05-13T10:35:24.290Z,1.70
2023-05-13T10:38:02.997Z,1.90
2023-05-13T10:40:36.496Z,1.73
2023-05-13T10:43:12.207Z,1.83
2023-05-13T10:45:41.056Z,1.70
2023-05-13T10:48:08.855Z,2.05
2023-05-13T10:50:38.718Z,2.28
2023-05-13T10:53:10.000Z,1.60
2023-05-13T10:55:41.709Z,2.03
2023-05-13T10:58:12.019Z,1.77
2023-05-13T11:00:42.825Z,1.90
2023-05-13T11:03:14.490Z,1.73
2023-05-13T11:05:44.091Z,2.10
2023-05-13T11:08:11.827Z,1.60
2023-05-13T11:10:39.412Z,1.42
2023-05-13T11:13:08.968Z,1.33
2023-05-13T11:15:47.610Z,1.90
2023-05-13T11:18:15.776Z,1.60
2023-05-13T11:20:52.523Z,1.50
2023-05-13T11:23:21.216Z,1.40
2023-05-13T11:26:16.133Z,1.65
2023-05-13T11:29:01.029Z,1.63
2023-05-13T11:31:29.931Z,1.42
2023-05-13T11:34:07.376Z,1.70
2023-05-13T11:36:36.096Z,1.70
2023-05-13T11:39:12.264Z,1.50
2023-05-13T11:41:43.460Z,1.58
2023-05-13T11:44:12.716Z,1.60
2023-05-13T11:46:50.138Z,1.30
2023-05-13T11:49:31.948Z,1.50
2023-05-13T11:51:59.910Z,1.30
2023-05-13T11:54:27.859Z,1.48
2023-05-13T11:56:56.681Z,1.52
2023-05-13T11:59:24.281Z,1.35
2023-05-13T12:02:02.068Z,1.50
2023-05-13T12:04:30.856Z,1.40
2023-05-13T12:06:58.621Z,1.42
2023-05-13T12:09:26.308Z,1.42
2023-05-13T12:11:55.671Z,1.33
2023-05-13T12:14:24.430Z,1.70
2023-05-13T12:16:53.353Z,1.33
2023-05-13T12:19:20.924Z,1.50
2023-05-13T12:21:51.143Z,1.80
2023-05-13T12:24:19.810Z,1.40
2023-05-13T12:26:47.589Z,1.23
2023-05-13T12:29:16.433Z,1.42
2023-05-13T12:31:45.121Z,1.40
2023-05-13T12:34:12.685Z,1.58
2023-05-13T12:36:40.512Z,1.33
2023-05-13T12:39:10.246Z,1.52
2023-05-13T12:41:39.361Z,1.52
2023-05-13T12:44:10.381Z,1.65
2023-05-13T12:46:40.127Z,1.95
2023-05-13T12:49:12.004Z,1.55
2023-05-13T12:51:39.538Z,2.40
2023-05-13T12:54:07.373Z,1.60
2023-05-13T12:56:34.855Z,2.08
2023-05-13T12:59:02.471Z,1.50
2023-05-13T13:01:30.073Z,1.70
2023-05-13T13:03:59.132Z,1.65
2023-05-13T13:06:26.846Z,1.80
2023-05-13T13:08:54.504Z,1.90
2023-05-13T13:11:22.014Z,1.60
2023-05-13T13:13:50.288Z,1.98
2023-05-13T13:16:17.872Z,1.65
2023-05-13T13:18:45.772Z,2.10
2023-05-13T13:21:14.604Z,2.00
2023-05-13T13:23:42.266Z,2.17
2023-05-13T13:26:09.718Z,1.80
2023-05-13T13:28:37.190Z,1.90
2023-05-13T13:31:05.130Z,1.75
2023-05-13T13:33:32.623Z,2.15
2023-05-13T13:36:00.316Z,1.80
2023-05-13T13:38:29.186Z,1.75
2023-05-13T13:40:56.704Z,1.83
2023-05-13T13:43:24.325Z,1.98
2023-05-13T13:45:51.828Z,2.17
2023-05-13T13:48:19.315Z,1.67
2023-05-13T13:50:48.119Z,4.15
2023-05-13T13:53:16.347Z,1.95
2023-05-13T13:55:45.205Z,2.00
2023-05-13T13:58:12.648Z,2.55
2023-05-13T14:00:40.191Z,1.70
2023-05-13T14:03:07.717Z,1.80
2023-05-13T14:05:35.334Z,1.83
2023-05-13T14:08:02.847Z,1.50
2023-05-13T14:10:30.324Z,1.65
2023-05-13T14:12:59.137Z,1.70
2023-05-13T14:15:28.860Z,1.30
2023-05-13T14:17:56.592Z,1.70
2023-05-13T14:20:24.877Z,1.70
2023-05-13T14:22:52.392Z,1.88
2023-05-13T14:25:19.885Z,1.63
2023-05-13T14:27:47.376Z,1.77
2023-05-13T14:30:16.341Z,1.92
2023-05-13T14:32:45.055Z,2.05
2023-05-13T14:35:12.749Z,1.85
2023-05-13T14:37:40.247Z,1.70
2023-05-13T14:40:09.600Z,1.75
2023-05-13T14:42:37.173Z,1.73
2023-05-13T14:45:05.934Z,1.90
2023-05-13T14:47:35.266Z,1.90
2023-05-13T14:50:02.787Z,1.60
2023-05-13T14:52:30.279Z,10.55
2023-05-13T14:54:57.755Z,2.00
2023-05-13T14:57:25.260Z,2.83
2023-05-13T14:59:52.736Z,1.90
2023-05-13T15:02:20.320Z,1.90
2023-05-13T15:04:49.158Z,1.70
2023-05-13T15:07:16.636Z,1.63
2023-05-13T15:09:44.157Z,1.65
2023-05-13T15:12:11.850Z,1.52
2023-05-13T15:14:39.348Z,2.08
2023-05-13T15:17:10.813Z,1.90
2023-05-13T15:19:39.025Z,1.65
2023-05-13T15:22:07.800Z,1.63
2023-05-13T15:24:35.319Z,1.88
2023-05-13T15:27:03.640Z,2.03
2023-05-13T15:29:31.160Z,1.75
2023-05-13T15:31:58.959Z,1.60
2023-05-13T15:34:26.444Z,1.75
2023-05-13T15:36:53.987Z,1.90
2023-05-13T15:39:22.959Z,1.88
2023-05-13T15:41:50.661Z,1.70
2023-05-13T15:44:18.192Z,1.90
2023-05-13T15:46:48.120Z,1.70
2023-05-13T15:49:17.623Z,1.73
2023-05-13T15:51:45.088Z,1.90
2023-05-13T15:54:12.612Z,2.30
2023-05-13T15:56:41.408Z,1.50
2023-05-13T15:59:08.861Z,1.77
2023-05-13T16:01:37.589Z,2.00
2023-05-13T16:04:05.295Z,2.00
2023-05-13T16:06:32.858Z,1.50
2023-05-13T16:09:01.902Z,2.15
2023-05-13T16:11:29.522Z,2.35
2023-05-13T16:13:58.489Z,1.70
2023-05-13T16:16:26.168Z,1.58
2023-05-13T16:18:53.925Z,1.70
2023-05-13T16:21:21.892Z,1.60
2023-05-13T16:23:50.964Z,1.80
2023-05-13T16:26:18.764Z,1.83
2023-05-13T16:28:46.247Z,1.88
2023-05-13T16:31:15.123Z,1.77
2023-05-13T16:33:42.668Z,1.75
2023-05-13T16:36:11.817Z,1.70
2023-05-13T16:38:41.324Z,1.70
2023-05-13T16:41:09.005Z,1.67
2023-05-13T16:43:36.492Z,1.65
2023-05-13T16:46:04.057Z,1.63
2023-05-13T16:48:33.063Z,1.60
2023-05-13T16:51:00.728Z,1.80
2023-05-13T16:53:28.249Z,1.98
2023-05-13T16:55:55.729Z,1.67
2023-05-13T16:58:23.727Z,2.50
2023-05-13T17:00:51.984Z,1.48
2023-05-13T17:03:19.599Z,1.50
2023-05-13T17:05:48.472Z,1.50
2023-05-13T17:08:17.137Z,1.95
2023-05-13T17:10:44.694Z,1.58
2023-05-13T17:13:12.182Z,1.63
2023-05-13T17:15:39.738Z,1.50
2023-05-13T17:18:07.278Z,1.90
2023-05-13T17:20:34.756Z,1.58
2023-05-13T17:23:03.530Z,1.70
2023-05-13T17:25:31.121Z,1.90
2023-05-13T17:27:58.570Z,1.60
2023-05-13T17:30:26.078Z,1.52
2023-05-13T17:32:53.615Z,1.70
2023-05-13T17:35:21.215Z,1.70
2023-05-13T17:37:48.709Z,1.65
2023-05-13T17:40:17.500Z,1.45
2023-05-13T17:42:44.989Z,1.60
2023-05-13T17:45:12.719Z,1.60
2023-05-13T17:47:40.316Z,1.90
2023-05-13T17:50:08.750Z,1.60
2023-05-13T17:52:36.234Z,1.60
2023-05-13T17:55:03.725Z,1.77
2023-05-13T17:57:33.411Z,1.50
2023-05-13T18:00:04.623Z,1.67
2023-05-13T18:02:32.176Z,1.50
2023-05-13T18:04:59.698Z,1.83
2023-05-13T18:07:27.335Z,2.13
2023-05-13T18:09:55.039Z,1.77
2023-05-13T18:12:22.653Z,1.67
2023-05-13T18:14:51.491Z,6.25
2023-05-13T18:17:19.061Z,2.10
2023-05-13T18:19:46.643Z,1.95
2023-05-13T18:22:14.207Z,2.13
2023-05-13T18:24:41.873Z,2.13
2023-05-13T18:27:09.373Z,1.73
2023-05-13T18:29:37.219Z,2.00
2023-05-13T18:32:06.599Z,2.22
2023-05-13T18:34:34.258Z,2.00
2023-05-13T18:37:01.765Z,2.03
2023-05-13T18:39:29.230Z,1.98
2023-05-13T18:41:56.718Z,1.90
2023-05-13T18:44:24.309Z,2.45
2023-05-13T18:46:51.835Z,2.10
2023-05-13T18:49:20.627Z,1.77
2023-05-13T18:51:48.184Z,2.20
2023-05-13T18:54:16.130Z,2.55
2023-05-13T18:56:43.609Z,2.58
2023-05-13T18:59:11.233Z,2.17
2023-05-13T19:01:39.026Z,2.30
2023-05-13T19:04:06.851Z,2.65
2023-05-13T19:06:37.974Z,2.05
2023-05-13T19:09:05.569Z,2.00
2023-05-13T19:11:33.349Z,2.10
2023-05-13T19:14:00.889Z,2.38
2023-05-13T19:16:28.520Z,2.55
2023-05-13T19:18:56.117Z,2.60
2023-05-13T19:21:24.204Z,2.13
2023-05-13T19:23:53.543Z,3.00
2023-05-13T19:26:21.468Z,2.22
2023-05-13T19:28:49.394Z,3.40
2023-05-13T19:31:16.932Z,2.38
2023-05-13T19:33:46.180Z,2.72
2023-05-13T19:36:14.027Z,2.33
2023-05-13T19:38:41.500Z,2.80
2023-05-13T19:41:10.314Z,2.38
2023-05-13T19:43:37.792Z,2.28
2023-05-13T19:46:05.636Z,3.05
2023-05-13T19:48:33.124Z,2.53
2023-05-13T19:51:00.632Z,2.78
2023-05-13T19:53:28.121Z,2.45
2023-05-13T19:55:56.665Z,2.40
2023-05-13T19:58:25.562Z,2.30
2023-05-13T20:00:53.184Z,2.38
2023-05-13T20:03:20.969Z,2.20
2023-05-13T20:05:49.139Z,2.42
2023-05-13T20:08:16.644Z,2.42
2023-05-13T20:10:44.282Z,2.88
2023-05-13T20:13:11.754Z,5.00
2023-05-13T20:15:41.661Z,2.92
2023-05-13T20:18:09.273Z,2.90
2023-05-13T20:20:36.803Z,3.00
2023-05-13T20:23:04.366Z,2.80
2023-05-13T20:25:31.900Z,2.53
2023-05-13T20:27:59.381Z,3.05
2023-05-13T20:30:26.878Z,3.45
2023-05-13T20:32:55.744Z,3.15
2023-05-13T20:35:23.310Z,3.03
2023-05-13T20:37:50.851Z,3.70
2023-05-13T20:40:18.347Z,3.78
2023-05-13T20:42:45.863Z,3.38
2023-05-13T20:45:13.573Z,3.60
2023-05-13T20:47:41.479Z,3.70
2023-05-13T20:50:11.786Z,4.00
2023-05-13T20:52:39.388Z,4.93
2023-05-13T20:55:07.896Z,6.22
2023-05-13T20:57:35.508Z,5.45
2023-05-13T21:00:03.080Z,4.90
2023-05-13T21:02:30.884Z,3.83
2023-05-13T21:04:58.387Z,3.65
2023-05-13T21:07:27.200Z,3.05
2023-05-13T21:09:54.690Z,3.78
2023-05-13T21:12:22.487Z,2.53
2023-05-13T21:14:50.052Z,2.53
2023-05-13T21:17:21.282Z,2.40
2023-05-13T21:19:49.297Z,2.20
2023-05-13T21:22:16.861Z,2.42
2023-05-13T21:24:46.774Z,2.55
2023-05-13T21:27:14.323Z,2.10
2023-05-13T21:29:41.929Z,3.03
2023-05-13T21:32:09.519Z,2.63
2023-05-13T21:34:37.007Z,2.42
2023-05-13T21:37:04.747Z,3.10
2023-05-13T21:39:32.370Z,2.92
2023-05-13T21:42:01.271Z,3.22
2023-05-13T21:44:29.015Z,2.40
2023-05-13T21:46:56.562Z,2.53
2023-05-13T21:49:24.512Z,2.60
2023-05-13T21:51:52.302Z,3.45
2023-05-13T21:54:19.919Z,3.65
2023-05-13T21:56:47.757Z,3.30
2023-05-13T21:59:16.709Z,4.43
2023-05-13T22:01:44.629Z,3.78
2023-05-13T22:04:12.174Z,3.70
2023-05-13T22:06:39.759Z,4.22
2023-05-13T22:09:07.573Z,5.15
2023-05-13T22:11:35.059Z,4.60
2023-05-13T22:14:02.559Z,4.82
2023-05-13T22:16:31.509Z,4.80
2023-05-13T22:19:00.032Z,4.45
2023-05-13T22:21:27.829Z,3.78
2023-05-13T22:23:55.344Z,4.07
2023-05-13T22:26:22.976Z,3.55
2023-05-13T22:28:50.592Z,3.00
2023-05-13T22:31:18.264Z,3.42
2023-05-13T22:33:47.257Z,3.20
2023-05-13T22:36:16.314Z,2.92
2023-05-13T22:38:44.055Z,2.90
2023-05-13T22:41:12.118Z,2.53
2023-05-13T22:43:39.690Z,3.45
2023-05-13T22:46:07.412Z,3.50
2023-05-13T22:48:35.019Z,4.07
2023-05-13T22:51:04.533Z,3.50
2023-05-13T22:53:32.188Z,3.47
2023-05-13T22:55:59.681Z,3.00
2023-05-13T22:58:27.227Z,3.63
2023-05-13T23:00:54.696Z,3.45
2023-05-13T23:03:22.225Z,3.42
2023-05-13T23:05:49.751Z,3.03
2023-05-13T23:08:18.581Z,3.63
2023-05-13T23:10:46.235Z,3.45
2023-05-13T23:13:13.727Z,3.05
2023-05-13T23:15:41.279Z,4.25
2023-05-13T23:18:09.004Z,3.67
2023-05-13T23:20:36.609Z,4.07
2023-05-13T23:23:04.134Z,3.45
2023-05-13T23:25:32.941Z,3.60
2023-05-13T23:28:00.425Z,3.92
2023-05-13T23:30:28.055Z,4.05
2023-05-13T23:32:55.691Z,4.00
2023-05-13T23:35:23.358Z,3.70
2023-05-13T23:37:50.864Z,3.30
2023-05-13T23:40:19.034Z,4.00
2023-05-13T23:42:47.953Z,3.70
2023-05-13T23:45:15.952Z,3.80
2023-05-13T23:47:43.476Z,3.92
2023-05-13T23:50:11.921Z,4.70
2023-05-13T23:52:39.435Z,3.95
2023-05-13T23:55:08.370Z,4.13
2023-05-13T23:57:35.981Z,4.47
